createdAt,value
2022-12-06T00:01:32.281Z,24.98
2022-12-06T00:04:02.817Z,23.88
2022-12-06T00:06:35.067Z,23.70
2022-12-06T00:09:03.828Z,21.50
2022-12-06T00:11:35.146Z,21.63
2022-12-06T00:14:05.575Z,21.80
2022-12-06T00:16:35.463Z,22.15
2022-12-06T00:19:04.737Z,21.52
2022-12-06T00:21:36.171Z,23.27
2022-12-06T00:24:06.295Z,22.35
2022-12-06T00:26:37.534Z,23.52
2022-12-06T00:29:07.005Z,22.60
2022-12-06T00:31:36.468Z,21.60
2022-12-06T00:34:05.403Z,22.27
2022-12-06T00:36:37.848Z,19.95
2022-12-06T00:39:08.660Z,20.23
2022-12-06T00:41:37.556Z,20.08
2022-12-06T00:44:06.581Z,22.50
2022-12-06T00:46:36.931Z,20.27
2022-12-06T00:49:07.291Z,19.38
2022-12-06T00:51:37.978Z,20.50
2022-12-06T00:54:08.049Z,22.80
2022-12-06T00:56:37.423Z,18.50
2022-12-06T00:59:06.908Z,19.73
2022-12-06T01:01:36.755Z,18.38
2022-12-06T01:04:07.538Z,22.08
2022-12-06T01:06:38.403Z,17.38
2022-12-06T01:09:09.202Z,17.40
2022-12-06T01:11:38.507Z,19.75
2022-12-06T01:14:07.544Z,19.48
2022-12-06T01:16:36.252Z,19.70
2022-12-06T01:19:07.295Z,20.40
2022-12-06T01:21:37.140Z,20.20
2022-12-06T01:24:06.240Z,16.40
2022-12-06T01:26:36.197Z,19.73
2022-12-06T01:29:06.140Z,17.48
2022-12-06T01:31:38.557Z,16.67
2022-12-06T01:34:08.943Z,15.95
2022-12-06T01:36:39.061Z,17.58
2022-12-06T01:39:10.500Z,18.70
2022-12-06T01:41:40.225Z,17.98
2022-12-06T01:44:39.951Z,17.83
2022-12-06T01:47:14.449Z,20.35
2022-12-06T01:49:44.442Z,19.88
2022-12-06T01:52:15.451Z,16.67
2022-12-06T01:54:43.998Z,16.65
2022-12-06T01:57:16.311Z,14.55
2022-12-06T01:59:45.558Z,14.95
2022-12-06T02:02:14.820Z,16.08
2022-12-06T02:04:44.463Z,15.93
2022-12-06T02:07:15.154Z,20.75
2022-12-06T02:09:44.653Z,18.20
2022-12-06T02:12:15.570Z,19.33
2022-12-06T02:14:47.327Z,16.40
2022-12-06T02:17:30.793Z,18.52
2022-12-06T02:20:12.482Z,17.27
2022-12-06T02:23:11.060Z,20.08
2022-12-06T02:26:15.644Z,18.65
2022-12-06T02:29:14.887Z,19.27
2022-12-06T02:31:50.670Z,15.45
2022-12-06T02:34:22.550Z,17.45
2022-12-06T02:36:58.466Z,14.13
2022-12-06T02:39:30.886Z,16.55
2022-12-06T02:42:03.564Z,19.15
2022-12-06T02:44:36.545Z,16.48
2022-12-06T02:47:09.885Z,16.55
2022-12-06T02:49:44.947Z,16.63
2022-12-06T02:52:15.109Z,14.70
2022-12-06T02:54:46.195Z,16.08
2022-12-06T02:57:14.925Z,14.02
2022-12-06T02:59:53.372Z,13.13
2022-12-06T03:02:24.495Z,13.15
2022-12-06T03:05:05.812Z,18.20
2022-12-06T03:07:41.506Z,10.95
2022-12-06T03:10:30.839Z,14.70
2022-12-06T03:13:07.360Z,16.60
2022-12-06T03:15:45.359Z,12.75
2022-12-06T03:18:20.078Z,11.88
2022-12-06T03:20:53.501Z,12.77
2022-12-06T03:23:26.159Z,12.43
2022-12-06T03:25:58.628Z,12.65
2022-12-06T03:28:28.972Z,14.05
2022-12-06T03:31:02.266Z,13.82
2022-12-06T03:33:36.362Z,17.60
2022-12-06T03:36:05.527Z,13.82
2022-12-06T03:38:38.170Z,15.07
2022-12-06T03:41:08.664Z,16.70
2022-12-06T03:43:37.445Z,13.70
2022-12-06T03:46:12.252Z,12.63
2022-12-06T03:48:45.217Z,14.07
2022-12-06T03:51:20.856Z,13.98
2022-12-06T03:53:50.879Z,13.05
2022-12-06T03:56:19.539Z,14.27
2022-12-06T03:58:48.214Z,16.48
2022-12-06T04:01:17.114Z,15.93
2022-12-06T04:03:47.116Z,12.00
2022-12-06T04:06:16.003Z,13.82
2022-12-06T04:08:44.573Z,17.58
2022-12-06T04:11:13.160Z,14.80
2022-12-06T04:13:42.015Z,17.40
2022-12-06T04:16:24.891Z,18.60
2022-12-06T04:18:54.826Z,17.73
2022-12-06T04:21:40.770Z,18.77
2022-12-06T04:24:09.334Z,22.85
2022-12-06T04:26:37.940Z,20.77
2022-12-06T04:29:23.844Z,21.92
2022-12-06T04:32:09.776Z,17.67
2022-12-06T04:34:57.337Z,17.02
2022-12-06T04:37:43.648Z,16.00
2022-12-06T04:40:12.535Z,16.65
2022-12-06T04:42:58.747Z,17.05
2022-12-06T04:45:27.306Z,17.08
2022-12-06T04:47:55.881Z,17.35
2022-12-06T04:50:25.714Z,15.25
2022-12-06T04:52:54.233Z,17.98
2022-12-06T04:55:22.878Z,18.23
2022-12-06T04:57:51.506Z,17.73
2022-12-06T05:00:20.723Z,18.77
2022-12-06T05:02:49.266Z,19.60
2022-12-06T05:05:17.848Z,16.83
2022-12-06T05:07:47.820Z,19.33
2022-12-06T05:10:16.504Z,15.00
2022-12-06T05:12:45.079Z,16.52
2022-12-06T05:15:15.954Z,16.70
2022-12-06T05:17:44.718Z,17.90
2022-12-06T05:20:14.758Z,15.55
2022-12-06T05:22:43.328Z,17.25
2022-12-06T05:25:13.642Z,20.85
2022-12-06T05:27:43.628Z,23.50
2022-12-06T05:30:13.217Z,21.75
2022-12-06T05:32:42.724Z,20.38
2022-12-06T05:35:11.279Z,23.77
2022-12-06T05:37:39.850Z,23.30
2022-12-06T05:40:09.321Z,21.92
2022-12-06T05:42:40.732Z,22.20
2022-12-06T05:45:10.620Z,24.10
2022-12-06T05:47:39.843Z,22.80
2022-12-06T05:50:09.375Z,19.67
2022-12-06T05:52:38.005Z,19.92
2022-12-06T05:55:06.957Z,18.00
2022-12-06T05:57:35.512Z,20.65
2022-12-06T06:00:07.150Z,21.83
2022-12-06T06:02:36.028Z,26.25
2022-12-06T06:05:05.015Z,21.45
2022-12-06T06:07:33.804Z,28.27
2022-12-06T06:10:03.088Z,23.80
2022-12-06T06:12:31.828Z,27.08
2022-12-06T06:15:00.344Z,23.20
2022-12-06T06:17:30.646Z,23.77
2022-12-06T06:19:59.172Z,23.48
2022-12-06T06:22:27.804Z,23.02
2022-12-06T06:24:56.297Z,23.52
2022-12-06T06:27:24.879Z,33.60
2022-12-06T06:29:53.463Z,19.90
2022-12-06T06:32:22.069Z,23.63
2022-12-06T06:34:51.975Z,20.00
2022-12-06T06:37:20.471Z,19.80
2022-12-06T06:39:49.017Z,16.08
2022-12-06T06:42:18.172Z,20.02
2022-12-06T06:44:46.732Z,18.05
2022-12-06T06:47:15.315Z,21.83
2022-12-06T06:49:43.770Z,18.48
2022-12-06T06:52:13.683Z,20.83
2022-12-06T06:54:42.232Z,17.63
2022-12-06T06:57:17.141Z,16.10
2022-12-06T06:59:46.935Z,17.67
2022-12-06T07:02:17.362Z,16.17
2022-12-06T07:04:46.415Z,16.83
2022-12-06T07:07:20.936Z,14.90
2022-12-06T07:09:50.223Z,15.20
2022-12-06T07:12:18.912Z,16.25
2022-12-06T07:14:47.424Z,17.15
2022-12-06T07:17:16.064Z,15.02
2022-12-06T07:19:44.922Z,14.23
2022-12-06T07:22:13.444Z,15.07
2022-12-06T07:24:47.833Z,13.77
2022-12-06T07:27:19.434Z,14.00
2022-12-06T07:29:47.951Z,17.40
2022-12-06T07:32:16.561Z,17.23
2022-12-06T07:34:45.050Z,17.98
2022-12-06T07:37:15.133Z,16.83
2022-12-06T07:39:45.031Z,18.35
2022-12-06T07:42:31.232Z,18.80
2022-12-06T07:45:03.364Z,18.48
2022-12-06T07:47:35.800Z,19.02
2022-12-06T07:50:05.777Z,19.63
2022-12-06T07:52:35.611Z,21.65
2022-12-06T07:55:07.096Z,18.42
2022-12-06T07:57:41.534Z,21.85
2022-12-06T08:00:15.267Z,20.10
2022-12-06T08:02:44.522Z,17.48
2022-12-06T08:05:13.554Z,17.15
2022-12-06T08:07:42.279Z,15.00
2022-12-06T08:10:12.422Z,17.30
2022-12-06T08:12:41.004Z,19.25
2022-12-06T08:15:13.014Z,15.98
2022-12-06T08:17:42.088Z,17.23
2022-12-06T08:20:12.324Z,15.75
2022-12-06T08:22:41.239Z,17.58
2022-12-06T08:25:11.986Z,17.73
2022-12-06T08:27:40.520Z,19.38
2022-12-06T08:30:10.111Z,23.42
2022-12-06T08:32:38.640Z,22.95
2022-12-06T08:35:07.834Z,20.27
2022-12-06T08:37:36.417Z,20.23
2022-12-06T08:40:05.530Z,21.48
2022-12-06T08:42:35.476Z,19.08
2022-12-06T08:45:04.221Z,16.60
2022-12-06T08:47:32.778Z,21.05
2022-12-06T08:50:01.660Z,22.88
2022-12-06T08:52:30.464Z,20.60
2022-12-06T08:54:59.014Z,28.48
2022-12-06T08:57:27.614Z,29.50
2022-12-06T08:59:57.679Z,24.92
2022-12-06T09:02:26.388Z,28.05
2022-12-06T09:04:55.031Z,24.10
2022-12-06T09:07:26.238Z,22.88
2022-12-06T09:09:55.466Z,23.88
2022-12-06T09:12:24.487Z,21.50
2022-12-06T09:14:53.272Z,25.98
2022-12-06T09:17:23.180Z,25.63
2022-12-06T09:19:51.826Z,26.55
2022-12-06T09:22:20.550Z,27.52
2022-12-06T09:24:49.059Z,27.48
2022-12-06T09:27:18.366Z,33.40
2022-12-06T09:29:46.969Z,28.42
2022-12-06T09:32:15.591Z,22.85
2022-12-06T09:34:45.502Z,26.33
2022-12-06T09:37:15.235Z,29.25
2022-12-06T09:39:46.598Z,22.48
2022-12-06T09:42:45.910Z,25.08
2022-12-06T09:45:32.683Z,33.33
2022-12-06T09:48:34.239Z,23.52
2022-12-06T09:51:16.893Z,26.30
2022-12-06T09:54:00.052Z,23.20
2022-12-06T09:56:36.745Z,25.23
2022-12-06T09:59:14.441Z,19.00
2022-12-06T10:02:02.978Z,20.25
2022-12-06T10:04:52.035Z,23.58
2022-12-06T10:07:29.651Z,17.95
2022-12-06T10:10:13.000Z,19.67
2022-12-06T10:12:56.499Z,16.35
2022-12-06T10:15:34.492Z,18.02
2022-12-06T10:18:21.570Z,16.45
2022-12-06T10:20:54.626Z,22.08
2022-12-06T10:23:36.655Z,19.77
2022-12-06T10:26:14.092Z,19.83
2022-12-06T10:28:46.072Z,15.82
2022-12-06T10:31:22.971Z,17.25
2022-12-06T10:33:58.738Z,19.13
2022-12-06T10:36:39.416Z,21.65
2022-12-06T10:39:18.905Z,17.48
2022-12-06T10:41:54.020Z,20.50
2022-12-06T10:44:29.884Z,18.58
2022-12-06T10:47:05.612Z,17.85
2022-12-06T10:49:44.782Z,19.30
2022-12-06T10:52:31.789Z,21.65
2022-12-06T10:55:17.474Z,17.73
2022-12-06T10:57:53.422Z,18.80
2022-12-06T11:00:25.112Z,15.07
2022-12-06T11:02:58.882Z,18.73
2022-12-06T11:05:32.569Z,14.85
2022-12-06T11:08:05.544Z,16.52
2022-12-06T11:10:36.433Z,14.80
2022-12-06T11:13:21.298Z,15.35
2022-12-06T11:15:54.714Z,12.10
2022-12-06T11:18:26.102Z,15.27
2022-12-06T11:21:01.403Z,17.92
2022-12-06T11:23:39.287Z,13.32
2022-12-06T11:26:20.826Z,13.93
2022-12-06T11:29:00.077Z,16.33
2022-12-06T11:31:34.216Z,14.18
2022-12-06T11:34:04.819Z,15.85
2022-12-06T11:36:33.963Z,18.80
2022-12-06T11:39:03.146Z,18.05
2022-12-06T11:41:37.541Z,15.50
2022-12-06T11:44:07.118Z,19.80
2022-12-06T11:46:35.765Z,18.35
2022-12-06T11:49:15.253Z,18.10
2022-12-06T11:51:43.771Z,16.70
2022-12-06T11:54:25.264Z,21.33
2022-12-06T11:56:58.912Z,20.00
2022-12-06T11:59:29.550Z,19.05
2022-12-06T12:02:01.561Z,20.05
2022-12-06T12:04:39.227Z,22.42
2022-12-06T12:07:16.206Z,17.58
2022-12-06T12:09:52.812Z,22.52
2022-12-06T12:12:25.381Z,20.02
2022-12-06T12:14:57.552Z,19.23
2022-12-06T12:17:31.285Z,16.77
2022-12-06T12:20:03.285Z,18.55
2022-12-06T12:22:36.920Z,17.58
2022-12-06T12:25:24.121Z,18.67
2022-12-06T12:27:55.506Z,21.85
2022-12-06T12:30:27.336Z,19.70
2022-12-06T12:33:21.612Z,19.60
2022-12-06T12:35:54.145Z,16.52
2022-12-06T12:38:35.906Z,19.15
2022-12-06T12:41:12.545Z,16.98
2022-12-06T12:44:07.722Z,19.15
2022-12-06T12:46:44.634Z,18.50
2022-12-06T12:49:24.844Z,17.63
2022-12-06T12:51:53.818Z,15.13
2022-12-06T12:54:26.479Z,15.45
2022-12-06T12:56:56.083Z,14.85
2022-12-06T12:59:28.027Z,15.18
2022-12-06T13:02:01.925Z,16.88
2022-12-06T13:04:42.420Z,14.10
2022-12-06T13:07:19.903Z,19.48
2022-12-06T13:10:02.893Z,16.92
2022-12-06T13:12:36.854Z,15.23
2022-12-06T13:15:12.858Z,12.98
2022-12-06T13:17:45.027Z,15.10
2022-12-06T13:20:23.712Z,14.05
2022-12-06T13:22:55.167Z,10.63
2022-12-06T13:25:24.255Z,13.20
2022-12-06T13:27:58.583Z,11.57
2022-12-06T13:30:34.264Z,10.15
2022-12-06T13:33:08.095Z,9.15
2022-12-06T13:35:41.132Z,8.23
2022-12-06T13:38:26.995Z,9.25
2022-12-06T13:40:56.707Z,10.30
2022-12-06T13:43:55.768Z,10.18
2022-12-06T13:46:28.341Z,7.75
2022-12-06T13:48:58.328Z,9.25
2022-12-06T13:51:49.523Z,7.85
2022-12-06T13:54:34.405Z,8.73
2022-12-06T13:57:29.970Z,11.48
2022-12-06T13:59:58.877Z,10.63
2022-12-06T14:02:53.293Z,9.63
2022-12-06T14:08:32.288Z,10.98
2022-12-06T14:11:18.821Z,11.10
2022-12-06T14:13:50.058Z,10.50
2022-12-06T14:16:23.286Z,11.98
2022-12-06T14:18:53.240Z,11.27
2022-12-06T14:21:25.027Z,9.00
2022-12-06T14:23:53.977Z,8.88
2022-12-06T14:26:26.230Z,11.57
2022-12-06T14:28:57.527Z,9.27
2022-12-06T14:31:29.859Z,11.93
2022-12-06T14:33:59.772Z,12.90
2022-12-06T14:36:31.471Z,9.73
2022-12-06T14:39:02.322Z,9.20
2022-12-06T14:41:51.798Z,10.07
2022-12-06T14:44:21.586Z,9.57
2022-12-06T14:46:50.581Z,12.32
2022-12-06T14:49:41.020Z,9.25
2022-12-06T14:52:24.692Z,11.70
2022-12-06T14:54:54.512Z,11.57
2022-12-06T14:57:29.797Z,11.57
2022-12-06T15:00:15.222Z,11.23
2022-12-06T15:03:04.366Z,10.48
2022-12-06T15:05:39.350Z,12.10
2022-12-06T15:08:31.320Z,10.80
2022-12-06T15:11:02.554Z,12.70
2022-12-06T15:13:31.449Z,10.63
2022-12-06T15:16:15.043Z,11.95
2022-12-06T15:18:55.634Z,11.75
2022-12-06T15:21:25.563Z,9.65
2022-12-06T15:23:55.318Z,15.40
2022-12-06T15:26:26.121Z,10.00
2022-12-06T15:28:54.722Z,10.35
2022-12-06T15:31:26.625Z,11.52
2022-12-06T15:33:55.846Z,12.05
2022-12-06T15:36:27.826Z,18.55
2022-12-06T15:38:56.320Z,12.98
2022-12-06T15:41:28.206Z,10.60
2022-12-06T15:43:57.476Z,14.00
2022-12-06T15:46:28.130Z,16.17
2022-12-06T15:48:57.300Z,12.55
2022-12-06T15:51:28.181Z,11.38
2022-12-06T15:53:58.921Z,12.68
2022-12-06T15:56:30.831Z,9.02
2022-12-06T15:58:59.461Z,10.48
2022-12-06T16:01:29.702Z,11.52
2022-12-06T16:03:58.999Z,7.13
2022-12-06T16:06:29.373Z,10.40
2022-12-06T16:08:58.435Z,10.30
2022-12-06T16:11:28.224Z,9.65
2022-12-06T16:13:56.762Z,8.18
2022-12-06T16:16:25.600Z,10.10
2022-12-06T16:18:55.122Z,10.80
2022-12-06T16:21:26.306Z,11.30
2022-12-06T16:24:17.452Z,12.15
2022-12-06T16:26:46.907Z,12.75
2022-12-06T16:29:17.678Z,12.48
2022-12-06T16:31:46.604Z,10.68
2022-12-06T16:34:15.424Z,12.00
2022-12-06T16:36:58.661Z,16.92
2022-12-06T16:39:29.665Z,15.13
2022-12-06T16:41:58.787Z,12.60
2022-12-06T16:44:27.337Z,14.13
2022-12-06T16:46:55.988Z,13.80
2022-12-06T16:52:14.857Z,13.98
2022-12-06T16:54:44.910Z,15.43
2022-12-06T16:57:14.530Z,12.90
2022-12-06T16:59:43.561Z,18.80
2022-12-06T17:02:27.412Z,16.33
2022-12-06T17:04:56.810Z,16.80
2022-12-06T17:07:25.474Z,17.70
2022-12-06T17:09:55.632Z,13.90
2022-12-06T17:12:24.319Z,18.70
2022-12-06T17:14:53.215Z,13.27
2022-12-06T17:17:25.857Z,16.10
2022-12-06T17:19:56.134Z,15.27
2022-12-06T17:22:25.111Z,20.30
2022-12-06T17:24:55.032Z,16.95
2022-12-06T17:27:23.772Z,17.98
2022-12-06T17:29:52.349Z,18.52
2022-12-06T17:32:21.957Z,20.20
2022-12-06T17:34:50.588Z,17.73
2022-12-06T17:37:19.350Z,18.42
2022-12-06T17:39:48.423Z,17.58
2022-12-06T17:42:35.695Z,20.52
2022-12-06T17:45:05.030Z,18.48
2022-12-06T17:47:34.118Z,18.73
2022-12-06T17:50:03.157Z,18.70
2022-12-06T17:52:31.945Z,16.20
2022-12-06T17:55:00.770Z,16.08
2022-12-06T17:57:31.274Z,18.00
2022-12-06T18:00:00.248Z,16.42
2022-12-06T18:02:28.919Z,13.88
2022-12-06T18:04:57.865Z,14.68
2022-12-06T18:07:27.019Z,13.98
2022-12-06T18:09:55.556Z,18.25
2022-12-06T18:12:24.074Z,20.02
2022-12-06T18:14:53.886Z,16.60
2022-12-06T18:17:22.483Z,16.70
2022-12-06T18:19:51.099Z,18.70
2022-12-06T18:22:20.341Z,15.88
2022-12-06T18:24:48.859Z,17.63
2022-12-06T18:27:17.551Z,16.05
2022-12-06T18:29:46.254Z,16.15
2022-12-06T18:32:16.588Z,15.25
2022-12-06T18:34:45.244Z,15.90
2022-12-06T18:37:13.832Z,17.05
2022-12-06T18:39:42.396Z,15.90
2022-12-06T18:42:10.938Z,15.27
2022-12-06T18:44:39.424Z,14.95
2022-12-06T18:47:08.033Z,17.13
2022-12-06T18:49:37.910Z,18.83
2022-12-06T18:52:06.551Z,14.48
2022-12-06T18:54:35.097Z,14.95
2022-12-06T18:57:03.671Z,17.38
2022-12-06T18:59:32.360Z,19.08
2022-12-06T19:02:00.940Z,15.68
2022-12-06T19:04:29.567Z,19.05
2022-12-06T19:06:59.488Z,14.80
2022-12-06T19:09:28.040Z,20.67
2022-12-06T19:11:56.679Z,18.30
2022-12-06T19:14:26.792Z,17.50
2022-12-06T19:16:55.487Z,16.85
2022-12-06T19:19:26.808Z,22.92
2022-12-06T19:21:56.860Z,16.38
2022-12-06T19:24:28.997Z,16.05
2022-12-06T19:26:58.939Z,15.32
2022-12-06T19:29:28.881Z,16.60
2022-12-06T19:31:57.714Z,18.00
2022-12-06T19:34:27.787Z,16.27
2022-12-06T19:36:57.043Z,18.25
2022-12-06T19:39:27.011Z,18.42
2022-12-06T19:42:12.905Z,17.27
2022-12-06T19:44:41.432Z,16.67
2022-12-06T19:47:10.431Z,17.85
2022-12-06T19:49:38.950Z,17.85
2022-12-06T19:52:07.603Z,16.42
2022-12-06T19:54:37.828Z,22.38
2022-12-06T19:57:06.588Z,19.83
2022-12-06T19:59:39.176Z,17.75
2022-12-06T20:02:08.974Z,20.40
2022-12-06T20:04:39.899Z,17.83
2022-12-06T20:07:08.712Z,21.75
2022-12-06T20:09:39.338Z,18.45
2022-12-06T20:12:08.598Z,17.48
2022-12-06T20:14:40.369Z,21.63
2022-12-06T20:17:11.119Z,19.02
2022-12-06T20:19:42.936Z,19.33
2022-12-06T20:22:11.667Z,17.15
2022-12-06T20:24:41.752Z,17.88
2022-12-06T20:27:11.229Z,16.40
2022-12-06T20:29:40.206Z,19.23
2022-12-06T20:32:08.960Z,16.88
2022-12-06T20:34:37.436Z,15.70
2022-12-06T20:37:07.229Z,20.83
2022-12-06T20:39:36.632Z,15.02
2022-12-06T20:42:07.350Z,15.93
2022-12-06T20:44:36.901Z,16.90
2022-12-06T20:47:05.549Z,16.27
2022-12-06T20:49:34.136Z,15.60
2022-12-06T20:52:03.659Z,17.58
2022-12-06T20:54:32.206Z,17.88
2022-12-06T20:57:01.891Z,16.60
2022-12-06T20:59:31.735Z,15.98
2022-12-06T21:02:00.289Z,18.95
2022-12-06T21:04:29.063Z,17.98
2022-12-06T21:06:58.055Z,17.77
2022-12-06T21:09:26.688Z,17.00
2022-12-06T21:11:55.224Z,15.52
2022-12-06T21:14:24.000Z,16.05
2022-12-06T21:16:53.872Z,19.33
2022-12-06T21:19:22.800Z,15.27
2022-12-06T21:21:53.518Z,15.73
2022-12-06T21:24:22.937Z,16.77
2022-12-06T21:26:51.711Z,15.43
2022-12-06T21:29:26.655Z,18.17
2022-12-06T21:32:01.339Z,15.05
2022-12-06T21:34:30.123Z,16.33
2022-12-06T21:36:59.439Z,19.30
2022-12-06T21:39:27.957Z,13.45
2022-12-06T21:41:56.541Z,15.35
2022-12-06T21:44:25.405Z,15.35
2022-12-06T21:46:54.428Z,17.25
2022-12-06T21:49:24.484Z,16.80
2022-12-06T21:52:01.120Z,15.68
2022-12-06T21:54:31.872Z,18.02
2022-12-06T21:57:00.346Z,15.50
2022-12-06T21:59:29.037Z,16.45
2022-12-06T22:01:57.665Z,18.48
2022-12-06T22:04:27.612Z,15.18
2022-12-06T22:06:56.092Z,18.25
2022-12-06T22:09:24.677Z,17.15
2022-12-06T22:11:53.550Z,13.35
2022-12-06T22:14:22.109Z,18.27
2022-12-06T22:16:51.164Z,16.77
2022-12-06T22:19:19.740Z,16.58
2022-12-06T22:21:49.618Z,17.17
2022-12-06T22:24:18.134Z,16.25
2022-12-06T22:26:46.755Z,14.07
2022-12-06T22:29:15.416Z,17.17
2022-12-06T22:31:44.385Z,16.98
2022-12-06T22:34:13.099Z,15.50
2022-12-06T22:36:41.623Z,18.65
2022-12-06T22:39:12.696Z,19.55
2022-12-06T22:41:41.193Z,17.73
2022-12-06T22:44:11.314Z,19.42
2022-12-06T22:46:39.999Z,23.00
2022-12-06T22:49:08.579Z,20.70
2022-12-06T22:51:40.372Z,19.30
2022-12-06T22:54:13.220Z,20.40
2022-12-06T22:56:48.189Z,20.00
2022-12-06T22:59:17.725Z,19.60
2022-12-06T23:01:46.342Z,19.52
2022-12-06T23:04:14.897Z,17.92
2022-12-06T23:06:43.553Z,21.92
2022-12-06T23:09:16.537Z,17.92
2022-12-06T23:11:45.394Z,21.60
2022-12-06T23:14:13.944Z,18.90
2022-12-06T23:16:43.898Z,21.15
2022-12-06T23:19:12.724Z,21.65
2022-12-06T23:21:42.456Z,20.23
2022-12-06T23:24:13.440Z,21.38
2022-12-06T23:26:45.445Z,25.05
2022-12-06T23:29:15.051Z,20.00
2022-12-06T23:31:45.231Z,23.92
2022-12-06T23:34:15.946Z,24.08
2022-12-06T23:36:44.951Z,22.95
2022-12-06T23:39:14.087Z,23.92
2022-12-06T23:41:44.389Z,25.48
2022-12-06T23:44:14.069Z,24.02
2022-12-06T23:46:44.452Z,27.05
2022-12-06T23:49:17.483Z,28.35
2022-12-06T23:51:47.169Z,26.30
2022-12-06T23:54:17.572Z,27.08
2022-12-06T23:56:47.809Z,27.63
2022-12-06T23:59:17.431Z,27.08
